createdAt,value
2018-02-01T00:00:41.277Z,3.10
2018-02-01T00:01:41.256Z,2.90
2018-02-01T00:02:41.240Z,3.40
2018-02-01T00:03:41.232Z,2.60
2018-02-01T00:04:41.200Z,1.60
2018-02-01T00:05:41.215Z,2.70
2018-02-01T00:06:41.159Z,4.20
2018-02-01T00:07:41.162Z,1.60
2018-02-01T00:08:41.146Z,2.40
2018-02-01T00:09:41.097Z,1.90
2018-02-01T00:10:41.106Z,2.80
2018-02-01T00:11:41.056Z,2.80
2018-02-01T00:12:41.039Z,2.50
2018-02-01T00:13:41.043Z,2.00
2018-02-01T00:14:41.026Z,1.20
2018-02-01T00:15:40.976Z,2.70
2018-02-01T00:16:40.986Z,2.90
2018-02-01T00:17:40.940Z,3.00
2018-02-01T00:18:40.918Z,3.60
2018-02-01T00:19:40.896Z,3.50
2018-02-01T00:20:40.888Z,4.10
2018-02-01T00:21:40.866Z,1.80
2018-02-01T00:22:40.837Z,1.40
2018-02-01T00:23:40.820Z,2.10
2018-02-01T00:24:40.799Z,2.20
2018-02-01T00:25:40.790Z,3.80
2018-02-01T00:26:40.784Z,2.50
2018-02-01T00:27:40.761Z,2.40
2018-02-01T00:28:40.747Z,3.40
2018-02-01T00:29:40.698Z,2.30
2018-02-01T00:30:40.683Z,3.60
2018-02-01T00:31:40.654Z,2.20
2018-02-01T00:32:40.662Z,3.60
2018-02-01T00:33:40.612Z,3.50
2018-02-01T00:34:40.597Z,4.20
2018-02-01T00:35:40.579Z,2.60
2018-02-01T00:36:40.556Z,2.90
2018-02-01T00:37:40.559Z,3.40
2018-02-01T00:38:40.515Z,3.70
2018-02-01T00:39:40.491Z,4.10
2018-02-01T00:40:40.499Z,2.70
2018-02-01T00:41:40.481Z,2.70
2018-02-01T00:42:40.459Z,2.10
2018-02-01T00:43:40.408Z,2.60
2018-02-01T00:44:40.420Z,3.20
2018-02-01T00:45:40.399Z,2.50
2018-02-01T00:46:40.382Z,2.80
2018-02-01T00:47:40.330Z,2.30
2018-02-01T00:48:40.347Z,1.80
2018-02-01T00:49:40.324Z,3.90
2018-02-01T00:50:40.284Z,4.50
2018-02-01T00:51:40.277Z,3.90
2018-02-01T00:52:40.238Z,3.50
2018-02-01T00:53:40.220Z,2.80
2018-02-01T00:54:40.192Z,3.60
2018-02-01T00:55:40.168Z,2.70
2018-02-01T00:56:40.161Z,3.10
2018-02-01T00:57:40.160Z,3.00
2018-02-01T00:58:40.115Z,4.20
2018-02-01T00:59:40.093Z,2.90
2018-02-01T01:00:40.073Z,3.10
2018-02-01T01:01:40.080Z,2.30
2018-02-01T01:02:40.031Z,2.80
2018-02-01T01:03:40.023Z,4.10
2018-02-01T01:04:40.020Z,4.70
2018-02-01T01:05:40.002Z,2.90
2018-02-01T01:06:39.959Z,3.30
2018-02-01T01:07:39.961Z,4.30
2018-02-01T01:08:39.918Z,3.30
2018-02-01T01:09:39.893Z,3.10
2018-02-01T01:10:39.896Z,4.40
2018-02-01T01:11:39.863Z,5.50
2018-02-01T01:12:39.835Z,4.90
2018-02-01T01:13:39.839Z,5.80
2018-02-01T01:14:39.790Z,3.60
2018-02-01T01:15:39.777Z,4.20
2018-02-01T01:16:39.751Z,7.20
2018-02-01T01:17:39.740Z,5.40
2018-02-01T01:18:39.712Z,5.10
2018-02-01T01:19:39.715Z,7.30
2018-02-01T01:20:39.700Z,6.60
2018-02-01T01:21:39.665Z,4.40
2018-02-01T01:22:39.627Z,6.70
2018-02-01T01:23:39.611Z,9.00
2018-02-01T01:24:39.601Z,5.80
2018-02-01T01:25:39.599Z,7.40
2018-02-01T01:26:39.549Z,6.30
2018-02-01T01:27:39.529Z,5.10
2018-02-01T01:28:39.517Z,5.40
2018-02-01T01:29:39.492Z,8.20
2018-02-01T01:30:39.467Z,7.50
2018-02-01T01:31:39.446Z,7.50
2018-02-01T01:32:39.422Z,6.60
2018-02-01T01:33:39.435Z,8.60
2018-02-01T01:34:39.411Z,7.90
2018-02-01T01:35:39.390Z,5.00
2018-02-01T01:36:39.369Z,7.50
2018-02-01T01:37:39.354Z,6.80
2018-02-01T01:38:39.326Z,4.80
2018-02-01T01:39:39.309Z,7.20
2018-02-01T01:40:39.816Z,7.50
2018-02-01T01:41:39.239Z,7.60
2018-02-01T01:42:39.244Z,6.00
2018-02-01T01:43:39.229Z,6.40
2018-02-01T01:44:39.176Z,5.10
2018-02-01T01:45:39.166Z,6.30
2018-02-01T01:46:39.136Z,6.50
2018-02-01T01:47:39.116Z,10.00
2018-02-01T01:48:39.099Z,9.20
2018-02-01T01:49:39.075Z,5.90
2018-02-01T01:50:39.059Z,8.20
2018-02-01T01:51:39.032Z,8.10
2018-02-01T01:52:39.012Z,13.20
2018-02-01T01:53:38.991Z,7.80
2018-02-01T01:54:38.974Z,7.70
2018-02-01T01:55:38.982Z,8.30
2018-02-01T01:56:38.934Z,10.20
2018-02-01T01:57:38.944Z,7.70
2018-02-01T01:58:38.889Z,8.90
2018-02-01T01:59:38.867Z,9.30
2018-02-01T02:00:38.878Z,9.50
2018-02-01T02:01:38.832Z,8.50
2018-02-01T02:02:38.828Z,9.40
2018-02-01T02:03:38.784Z,6.90
2018-02-01T02:04:38.765Z,7.20
2018-02-01T02:05:38.756Z,9.60
2018-02-01T02:06:38.734Z,8.10
2018-02-01T02:07:38.706Z,10.60
2018-02-01T02:08:38.692Z,9.00
2018-02-01T02:09:38.675Z,9.00
2018-02-01T02:10:38.644Z,9.70
2018-02-01T02:11:38.627Z,11.40
2018-02-01T02:12:38.598Z,9.00
2018-02-01T02:13:38.583Z,10.70
2018-02-01T02:14:38.558Z,7.20
2018-02-01T02:15:38.568Z,9.30
2018-02-01T02:16:38.548Z,9.70
2018-02-01T02:17:38.497Z,11.20
2018-02-01T02:18:38.475Z,13.30
2018-02-01T02:19:38.469Z,9.90
2018-02-01T02:20:38.435Z,9.00
2018-02-01T02:21:38.417Z,9.50
2018-02-01T02:22:38.420Z,9.80
2018-02-01T02:23:38.404Z,11.30
2018-02-01T02:24:38.379Z,9.90
2018-02-01T02:25:38.338Z,7.40
2018-02-01T02:26:38.309Z,9.10
2018-02-01T02:27:38.295Z,9.60
2018-02-01T02:28:38.300Z,10.00
2018-02-01T02:29:38.246Z,10.70
2018-02-01T02:30:38.225Z,14.00
2018-02-01T02:31:38.212Z,11.40
2018-02-01T02:32:38.200Z,15.90
2018-02-01T02:33:38.166Z,13.40
2018-02-01T02:34:38.171Z,12.40
2018-02-01T02:35:38.122Z,12.20
2018-02-01T02:36:38.104Z,13.60
2018-02-01T02:37:38.148Z,11.20
2018-02-01T02:38:38.072Z,12.10
2018-02-01T02:39:38.042Z,14.00
2018-02-01T02:40:38.033Z,15.00
2018-02-01T02:41:37.996Z,15.50
2018-02-01T02:42:37.994Z,11.40
2018-02-01T02:43:37.975Z,14.00
2018-02-01T02:44:37.935Z,15.20
2018-02-01T02:45:37.919Z,10.00
2018-02-01T02:46:37.921Z,17.30
2018-02-01T02:47:37.877Z,13.60
2018-02-01T02:48:37.852Z,15.60
2018-02-01T02:49:37.835Z,12.90
2018-02-01T02:50:37.815Z,11.50
2018-02-01T02:51:37.888Z,11.80
2018-02-01T02:52:37.855Z,16.50
2018-02-01T02:53:37.844Z,14.10
2018-02-01T02:54:37.830Z,12.40
2018-02-01T02:55:37.787Z,13.00
2018-02-01T02:56:37.784Z,15.30
2018-02-01T02:57:37.771Z,11.60
2018-02-01T02:58:37.725Z,12.20
2018-02-01T03:00:10.932Z,12.80
2018-02-01T03:00:37.675Z,14.80
2018-02-01T03:01:37.595Z,13.70
2018-02-01T03:02:37.565Z,12.20
2018-02-01T03:03:37.547Z,13.90
2018-02-01T03:04:38.096Z,14.90
2018-02-01T03:05:37.528Z,11.90
2018-02-01T03:06:37.481Z,10.60
2018-02-01T03:07:37.462Z,10.80
2018-02-01T03:08:37.469Z,14.10
2018-02-01T03:09:37.450Z,11.50
2018-02-01T03:10:37.428Z,10.40
2018-02-01T03:11:37.389Z,14.00
2018-02-01T03:12:37.382Z,11.30
2018-02-01T03:13:37.898Z,11.30
2018-02-01T03:14:37.346Z,18.60
2018-02-01T03:15:37.324Z,12.80
2018-02-01T03:16:37.274Z,11.10
2018-02-01T03:17:37.280Z,12.40
2018-02-01T03:18:37.260Z,11.80
2018-02-01T03:19:37.210Z,14.00
2018-02-01T03:20:37.202Z,12.60
2018-02-01T03:21:37.174Z,12.30
2018-02-01T03:22:37.153Z,11.90
2018-02-01T03:23:37.667Z,13.40
2018-02-01T03:24:37.107Z,15.80
2018-02-01T03:25:37.115Z,12.30
2018-02-01T03:26:37.078Z,11.80
2018-02-01T03:27:37.045Z,11.00
2018-02-01T03:28:37.050Z,11.10
2018-02-01T03:29:37.007Z,12.00
2018-02-01T03:30:36.989Z,13.20
2018-02-01T03:31:36.965Z,15.10
2018-02-01T03:32:36.974Z,12.20
2018-02-01T03:33:36.954Z,13.60
2018-02-01T03:34:36.908Z,12.50
2018-02-01T03:35:36.906Z,11.00
2018-02-01T03:36:36.885Z,14.00
2018-02-01T03:37:37.460Z,13.60
2018-02-01T03:39:35.726Z,17.70
2018-02-01T03:39:36.808Z,11.60
2018-02-01T03:40:36.805Z,14.50
2018-02-01T03:41:36.786Z,13.40
2018-02-01T03:42:36.766Z,15.00
2018-02-01T03:43:36.740Z,12.30
2018-02-01T03:44:36.695Z,15.90
2018-02-01T03:45:36.674Z,11.60
2018-02-01T03:46:36.680Z,15.60
2018-02-01T03:47:36.654Z,14.40
2018-02-01T03:48:36.633Z,13.70
2018-02-01T03:49:36.616Z,13.70
2018-02-01T03:50:36.573Z,10.40
2018-02-01T03:51:36.550Z,11.80
2018-02-01T03:52:36.552Z,13.10
2018-02-01T03:53:36.528Z,12.20
2018-02-01T03:54:36.509Z,10.60
2018-02-01T03:55:36.486Z,14.30
2018-02-01T03:56:36.444Z,12.70
2018-02-01T03:57:36.420Z,14.50
2018-02-01T03:58:36.425Z,13.90
2018-02-01T03:59:36.405Z,11.00
2018-02-01T04:00:36.356Z,11.50
2018-02-01T04:01:36.340Z,15.10
2018-02-01T04:02:36.347Z,12.50
2018-02-01T04:03:36.329Z,10.10
2018-02-01T04:04:36.271Z,12.00
2018-02-01T04:05:36.281Z,14.60
2018-02-01T04:06:36.247Z,11.30
2018-02-01T04:07:36.218Z,9.70
2018-02-01T04:08:36.194Z,10.90
2018-02-01T04:09:36.199Z,13.80
2018-02-01T04:10:36.164Z,10.60
2018-02-01T04:11:36.158Z,10.90
2018-02-01T04:12:36.139Z,11.40
2018-02-01T04:13:36.122Z,12.60
2018-02-01T04:14:36.068Z,13.60
2018-02-01T04:15:36.059Z,11.10
2018-02-01T04:16:36.031Z,12.10
2018-02-01T04:17:36.035Z,12.50
2018-02-01T04:18:35.997Z,11.10
2018-02-01T04:19:35.965Z,10.20
2018-02-01T04:20:36.101Z,12.40
2018-02-01T04:21:35.937Z,11.90
2018-02-01T04:22:35.933Z,11.20
2018-02-01T04:23:35.912Z,12.40
2018-02-01T04:24:35.864Z,13.10
2018-02-01T04:25:35.857Z,10.50
2018-02-01T04:26:35.852Z,11.70
2018-02-01T04:27:35.809Z,9.80
2018-02-01T04:28:35.786Z,11.00
2018-02-01T04:29:35.772Z,10.50
2018-02-01T04:30:35.800Z,12.10
2018-02-01T04:31:35.721Z,10.00
2018-02-01T04:32:35.713Z,13.80
2018-02-01T04:33:35.685Z,10.60
2018-02-01T04:34:35.672Z,11.60
2018-02-01T04:35:35.688Z,12.70
2018-02-01T04:36:35.619Z,13.60
2018-02-01T04:37:35.601Z,11.10
2018-02-01T04:38:35.585Z,12.20
2018-02-01T04:39:35.556Z,12.20
2018-02-01T04:40:35.567Z,11.60
2018-02-01T04:41:35.518Z,11.80
2018-02-01T04:42:35.528Z,13.40
2018-02-01T04:43:35.503Z,12.80
2018-02-01T04:44:35.458Z,12.00
2018-02-01T04:45:35.466Z,16.00
2018-02-01T04:46:35.417Z,11.30
2018-02-01T04:47:35.427Z,19.60
2018-02-01T04:48:35.405Z,13.10
2018-02-01T04:49:35.382Z,13.30
2018-02-01T04:50:35.365Z,12.70
2018-02-01T04:51:35.325Z,13.60
2018-02-01T04:52:35.321Z,11.70
2018-02-01T04:53:35.301Z,13.70
2018-02-01T04:54:35.269Z,15.50
2018-02-01T04:55:35.247Z,14.60
2018-02-01T04:56:35.220Z,17.40
2018-02-01T04:57:35.202Z,14.20
2018-02-01T04:58:35.196Z,12.90
2018-02-01T04:59:35.154Z,14.50
2018-02-01T05:00:35.130Z,12.20
2018-02-01T05:01:35.122Z,12.90
2018-02-01T05:02:35.095Z,12.50
2018-02-01T05:03:35.079Z,14.60
2018-02-01T05:04:35.052Z,14.50
2018-02-01T05:05:35.034Z,10.60
2018-02-01T05:06:35.019Z,13.60
2018-02-01T05:07:35.000Z,12.10
2018-02-01T05:08:34.976Z,10.40
2018-02-01T05:09:34.961Z,12.40
2018-02-01T05:10:34.945Z,12.70
2018-02-01T05:11:34.917Z,13.00
2018-02-01T05:12:34.895Z,9.70
2018-02-01T05:13:34.875Z,11.20
2018-02-01T05:14:34.872Z,12.00
2018-02-01T05:15:34.843Z,13.10
2018-02-01T05:16:34.865Z,11.90
2018-02-01T05:17:34.803Z,11.80
2018-02-01T05:18:34.782Z,12.20
2018-02-01T05:19:34.753Z,11.80
2018-02-01T05:20:34.732Z,12.20
2018-02-01T05:21:34.716Z,13.00
2018-02-01T05:22:34.693Z,12.10
2018-02-01T05:23:34.674Z,10.80
2018-02-01T05:24:34.651Z,13.40
2018-02-01T05:25:34.652Z,11.90
2018-02-01T05:26:34.617Z,12.20
2018-02-01T05:27:34.607Z,10.70
2018-02-01T05:28:34.571Z,10.50
2018-02-01T05:29:34.555Z,11.30
2018-02-01T05:30:34.546Z,11.70
2018-02-01T05:31:34.511Z,16.30
2018-02-01T05:32:34.511Z,11.60
2018-02-01T05:33:34.485Z,11.30
2018-02-01T05:34:34.459Z,11.00
2018-02-01T05:35:34.450Z,10.70
2018-02-01T05:36:34.430Z,12.60
2018-02-01T05:37:34.405Z,10.20
2018-02-01T05:38:34.380Z,10.00
2018-02-01T05:39:34.353Z,9.70
2018-02-01T05:40:34.337Z,11.30
2018-02-01T05:41:34.325Z,10.20
2018-02-01T05:42:34.296Z,9.90
2018-02-01T05:43:34.286Z,12.20
2018-02-01T05:44:34.256Z,12.90
2018-02-01T05:45:34.242Z,9.60
2018-02-01T05:46:34.213Z,10.70
2018-02-01T05:47:34.202Z,9.60
2018-02-01T05:48:34.173Z,10.70
2018-02-01T05:49:34.156Z,10.20
2018-02-01T05:50:34.154Z,9.40
2018-02-01T05:51:34.125Z,8.70
2018-02-01T05:52:34.095Z,11.30
2018-02-01T05:53:34.089Z,8.70
2018-02-01T05:54:34.055Z,7.20
2018-02-01T05:55:34.042Z,10.20
2018-02-01T05:56:34.021Z,8.70
2018-02-01T05:57:34.005Z,11.10
2018-02-01T05:58:33.983Z,10.40
2018-02-01T05:59:33.955Z,8.40
2018-02-01T06:00:33.935Z,7.80
2018-02-01T06:01:33.928Z,8.00
2018-02-01T06:02:33.905Z,6.80
2018-02-01T06:03:33.884Z,6.70
2018-02-01T06:04:33.864Z,6.60
2018-02-01T06:05:33.843Z,8.10
2018-02-01T06:06:33.821Z,11.00
2018-02-01T06:07:33.793Z,7.10
2018-02-01T06:08:33.778Z,8.40
2018-02-01T06:09:33.794Z,9.50
2018-02-01T06:10:33.743Z,7.30
2018-02-01T06:11:33.715Z,11.60
2018-02-01T06:12:33.693Z,11.30
2018-02-01T06:13:33.668Z,9.70
2018-02-01T06:14:33.659Z,9.60
2018-02-01T06:15:33.639Z,8.00
2018-02-01T06:16:33.627Z,8.60
2018-02-01T06:17:33.606Z,8.60
2018-02-01T06:18:33.590Z,8.60
2018-02-01T06:19:33.549Z,8.40
2018-02-01T06:20:33.551Z,6.90
2018-02-01T06:21:33.508Z,7.00
2018-02-01T06:22:33.487Z,7.00
2018-02-01T06:23:33.481Z,7.50
2018-02-01T06:24:33.462Z,6.60
2018-02-01T06:25:33.434Z,6.10
2018-02-01T06:26:33.418Z,8.40
2018-02-01T06:27:33.402Z,6.80
2018-02-01T06:28:33.376Z,5.30
2018-02-01T06:29:33.353Z,6.60
2018-02-01T06:30:33.332Z,6.60
2018-02-01T06:31:33.311Z,5.10
2018-02-01T06:32:33.300Z,5.70
2018-02-01T06:33:33.270Z,8.50
2018-02-01T06:34:33.263Z,5.50
2018-02-01T06:35:33.244Z,4.10
2018-02-01T06:36:33.220Z,4.20
2018-02-01T06:37:33.187Z,6.50
2018-02-01T06:38:33.171Z,5.30
2018-02-01T06:39:33.159Z,6.70
2018-02-01T06:40:33.124Z,8.00
2018-02-01T06:41:33.108Z,5.20
2018-02-01T06:42:33.101Z,5.20
2018-02-01T06:43:33.079Z,5.90
2018-02-01T06:44:33.045Z,5.40
2018-02-01T06:45:33.037Z,5.70
2018-02-01T06:46:33.018Z,5.60
2018-02-01T06:47:33.003Z,5.60
2018-02-01T06:48:32.978Z,6.10
2018-02-01T06:49:32.956Z,6.10
2018-02-01T06:50:32.927Z,5.90
2018-02-01T06:51:32.916Z,4.00
2018-02-01T06:52:32.883Z,7.00
2018-02-01T06:53:32.872Z,5.60
2018-02-01T06:54:32.855Z,4.30
2018-02-01T06:55:32.834Z,5.40
2018-02-01T06:56:32.813Z,6.10
2018-02-01T06:57:32.785Z,5.00
2018-02-01T06:58:32.776Z,4.90
2018-02-01T06:59:32.741Z,5.10
2018-02-01T07:00:32.741Z,5.40
2018-02-01T07:01:32.705Z,5.10
2018-02-01T07:02:32.681Z,4.30
2018-02-01T07:03:32.668Z,5.60
2018-02-01T07:04:32.651Z,7.10
2018-02-01T07:05:32.632Z,6.00
2018-02-01T07:06:32.810Z,6.20
2018-02-01T07:07:32.591Z,5.20
2018-02-01T07:08:32.575Z,6.90
2018-02-01T07:09:32.538Z,6.70
2018-02-01T07:10:32.532Z,3.70
2018-02-01T07:11:32.501Z,6.60
2018-02-01T07:12:32.492Z,5.50
2018-02-01T07:13:32.457Z,5.20
2018-02-01T07:14:32.436Z,5.80
2018-02-01T07:15:32.411Z,6.90
2018-02-01T07:16:32.396Z,4.30
2018-02-01T07:17:32.376Z,7.70
2018-02-01T07:18:32.370Z,7.10
2018-02-01T07:19:32.338Z,4.40
2018-02-01T07:20:32.325Z,6.60
2018-02-01T07:21:32.296Z,4.70
2018-02-01T07:22:32.286Z,7.00
2018-02-01T07:23:32.255Z,6.70
2018-02-01T07:24:32.235Z,5.50
2018-02-01T07:25:32.223Z,8.60
2018-02-01T07:26:32.197Z,4.90
2018-02-01T07:27:32.186Z,6.30
2018-02-01T07:28:32.151Z,4.70
2018-02-01T07:29:32.134Z,4.00
2018-02-01T07:30:32.125Z,4.10
2018-02-01T07:31:32.112Z,6.70
2018-02-01T07:32:32.072Z,7.00
2018-02-01T07:33:32.052Z,5.10
2018-02-01T07:34:32.049Z,4.20
2018-02-01T07:35:32.009Z,8.30
2018-02-01T07:36:31.989Z,7.30
2018-02-01T07:37:31.987Z,7.60
2018-02-01T07:38:31.950Z,5.00
2018-02-01T07:39:31.935Z,4.50
2018-02-01T07:40:31.921Z,3.10
2018-02-01T07:41:31.902Z,4.80
2018-02-01T07:42:31.876Z,4.10
2018-02-01T07:43:31.848Z,5.00
2018-02-01T07:44:31.848Z,6.60
2018-02-01T07:45:31.808Z,6.70
2018-02-01T07:46:31.811Z,5.30
2018-02-01T07:47:31.782Z,7.10
2018-02-01T07:48:31.758Z,7.30
2018-02-01T07:49:31.740Z,5.20
2018-02-01T07:50:31.728Z,4.70
2018-02-01T07:51:31.687Z,4.20
2018-02-01T07:52:31.670Z,3.80
2018-02-01T07:53:31.659Z,4.90
2018-02-01T07:54:31.641Z,3.90
2018-02-01T07:55:31.617Z,7.70
2018-02-01T07:56:31.600Z,5.90
2018-02-01T07:57:31.577Z,5.00
2018-02-01T07:58:31.557Z,4.60
2018-02-01T07:59:31.524Z,6.40
2018-02-01T08:00:31.515Z,4.30
2018-02-01T08:01:31.481Z,4.90
2018-02-01T08:02:31.470Z,5.20
2018-02-01T08:03:31.453Z,5.00
2018-02-01T08:04:31.440Z,4.40
2018-02-01T08:05:31.401Z,4.60
2018-02-01T08:06:31.393Z,4.90
2018-02-01T08:07:31.396Z,4.10
2018-02-01T08:08:31.350Z,3.90
2018-02-01T08:09:31.330Z,4.90
2018-02-01T08:10:31.296Z,4.50
2018-02-01T08:11:31.292Z,4.50
2018-02-01T08:12:31.269Z,6.10
2018-02-01T08:13:31.240Z,5.70
2018-02-01T08:14:31.229Z,4.40
2018-02-01T08:15:31.201Z,6.40
2018-02-01T08:16:31.191Z,3.10
2018-02-01T08:17:31.171Z,5.10
2018-02-01T08:18:31.147Z,4.10
2018-02-01T08:19:31.118Z,5.50
2018-02-01T08:20:31.095Z,6.20
2018-02-01T08:21:31.088Z,7.60
2018-02-01T08:22:31.054Z,3.50
2018-02-01T08:23:31.040Z,4.50
2018-02-01T08:24:31.025Z,6.50
2018-02-01T08:25:30.998Z,5.00
2018-02-01T08:26:30.972Z,5.10
2018-02-01T08:27:30.980Z,5.80
2018-02-01T08:28:30.966Z,6.80
2018-02-01T08:29:30.910Z,5.80
2018-02-01T08:30:30.900Z,7.60
2018-02-01T08:31:30.899Z,6.70
2018-02-01T08:32:30.851Z,8.20
2018-02-01T08:33:30.829Z,6.50
2018-02-01T08:34:30.819Z,3.80
2018-02-01T08:35:30.792Z,5.70
2018-02-01T08:36:30.794Z,4.00
2018-02-01T08:37:30.760Z,5.10
2018-02-01T08:38:30.762Z,6.20
2018-02-01T08:39:30.711Z,5.00
2018-02-01T08:40:30.690Z,4.10
2018-02-01T08:41:30.672Z,5.60
2018-02-01T08:42:30.648Z,7.10
2018-02-01T08:43:30.652Z,5.10
2018-02-01T08:44:30.613Z,5.30
2018-02-01T08:45:30.590Z,4.10
2018-02-01T08:46:30.584Z,5.20
2018-02-01T08:47:30.573Z,3.30
2018-02-01T08:48:30.556Z,4.60
2018-02-01T08:49:30.527Z,6.90
2018-02-01T08:50:30.486Z,5.40
2018-02-01T08:51:30.465Z,3.60
2018-02-01T08:52:30.440Z,7.40
2018-02-01T08:53:30.417Z,3.80
2018-02-01T08:54:30.397Z,3.60
2018-02-01T08:55:30.394Z,3.60
2018-02-01T08:56:30.374Z,2.30
2018-02-01T08:57:30.337Z,4.10
2018-02-01T08:58:30.316Z,5.40
2018-02-01T08:59:30.295Z,4.20
2018-02-01T09:00:30.308Z,2.90
2018-02-01T09:01:30.260Z,3.00
2018-02-01T09:02:30.262Z,4.70
2018-02-01T09:03:30.211Z,4.00
2018-02-01T09:04:30.208Z,4.30
2018-02-01T09:05:30.178Z,6.60
2018-02-01T09:06:30.153Z,4.80
2018-02-01T09:07:30.132Z,3.30
2018-02-01T09:08:30.137Z,2.90
2018-02-01T09:09:30.093Z,5.20
2018-02-01T09:10:30.081Z,4.60
2018-02-01T09:11:30.074Z,3.60
2018-02-01T09:12:30.054Z,3.20
2018-02-01T09:13:30.012Z,3.00
2018-02-01T09:14:30.019Z,8.10
2018-02-01T09:15:29.975Z,5.40
2018-02-01T09:16:29.973Z,2.10
2018-02-01T09:17:29.945Z,3.50
2018-02-01T09:18:29.908Z,4.10
2018-02-01T09:19:29.922Z,3.30
2018-02-01T09:20:29.885Z,3.50
2018-02-01T09:21:29.857Z,2.70
2018-02-01T09:22:29.857Z,5.70
2018-02-01T09:23:29.840Z,5.30
2018-02-01T09:24:29.817Z,4.50
2018-02-01T09:25:29.771Z,4.60
2018-02-01T09:26:29.759Z,3.60
2018-02-01T09:27:29.765Z,5.90
2018-02-01T09:28:29.746Z,6.50
2018-02-01T09:29:29.697Z,3.10
2018-02-01T09:30:29.680Z,4.40
2018-02-01T09:31:29.692Z,2.90
2018-02-01T09:32:29.643Z,5.20
2018-02-01T09:33:29.653Z,3.60
2018-02-01T09:34:29.636Z,4.10
2018-02-01T09:35:29.613Z,3.40
2018-02-01T09:36:29.571Z,2.60
2018-02-01T09:37:29.578Z,3.40
2018-02-01T09:38:29.544Z,3.80
2018-02-01T09:39:29.515Z,3.60
2018-02-01T09:40:29.511Z,4.30
2018-02-01T09:41:29.496Z,3.80
2018-02-01T09:42:29.475Z,3.30
2018-02-01T09:43:29.444Z,4.20
2018-02-01T09:44:29.446Z,5.40
2018-02-01T09:45:29.423Z,3.00
2018-02-01T09:46:29.392Z,3.10
2018-02-01T09:47:29.394Z,4.30
2018-02-01T09:48:29.375Z,3.00
2018-02-01T09:49:29.369Z,3.90
2018-02-01T09:50:29.321Z,3.10
2018-02-01T09:51:29.330Z,4.20
2018-02-01T09:52:29.311Z,6.50
2018-02-01T09:53:29.285Z,3.20
2018-02-01T09:54:29.271Z,4.10
2018-02-01T09:55:29.236Z,4.00
2018-02-01T09:56:29.245Z,3.40
2018-02-01T09:57:29.193Z,2.20
2018-02-01T09:58:29.185Z,2.20
2018-02-01T09:59:29.190Z,2.70
2018-02-01T10:00:29.178Z,5.20
2018-02-01T10:01:29.143Z,2.50
2018-02-01T10:02:29.143Z,6.10
2018-02-01T10:03:29.109Z,3.30
2018-02-01T10:04:29.084Z,3.30
2018-02-01T10:05:29.093Z,3.20
2018-02-01T10:06:29.075Z,2.20
2018-02-01T10:07:29.035Z,3.40
2018-02-01T10:08:29.014Z,4.60
2018-02-01T10:09:28.998Z,3.50
2018-02-01T10:10:29.541Z,1.90
2018-02-01T10:11:28.967Z,3.90
2018-02-01T10:12:28.952Z,2.90
2018-02-01T10:13:28.949Z,2.70
2018-02-01T10:14:28.919Z,3.30
2018-02-01T10:15:28.932Z,2.80
2018-02-01T10:16:28.888Z,3.60
2018-02-01T10:17:28.876Z,2.80
2018-02-01T10:18:28.887Z,3.00
2018-02-01T10:19:28.854Z,2.90
2018-02-01T10:20:28.837Z,2.60
2018-02-01T10:21:28.821Z,2.80
2018-02-01T10:22:28.806Z,2.70
2018-02-01T10:23:28.795Z,2.60
2018-02-01T10:24:28.771Z,3.40
2018-02-01T10:25:28.752Z,4.30
2018-02-01T10:26:28.733Z,2.10
2018-02-01T10:27:28.746Z,2.70
2018-02-01T10:28:28.708Z,2.50
2018-02-01T10:29:28.695Z,2.60
2018-02-01T10:30:28.708Z,3.30
2018-02-01T10:31:28.695Z,3.40
2018-02-01T10:32:28.675Z,4.30
2018-02-01T10:33:28.648Z,2.70
2018-02-01T10:34:28.620Z,4.10
2018-02-01T10:35:28.601Z,3.00
2018-02-01T10:36:28.589Z,3.20
2018-02-01T10:37:28.571Z,4.40
2018-02-01T10:38:28.561Z,2.70
2018-02-01T10:39:28.570Z,3.30
2018-02-01T10:40:28.528Z,2.80
2018-02-01T10:41:28.540Z,3.70
2018-02-01T10:42:28.526Z,3.90
2018-02-01T10:43:28.510Z,3.90
2018-02-01T10:44:28.471Z,3.10
2018-02-01T10:45:28.466Z,2.30
2018-02-01T10:46:28.466Z,3.70
2018-02-01T10:47:28.429Z,3.50
2018-02-01T10:48:28.436Z,2.80
2018-02-01T10:49:28.423Z,2.20
2018-02-01T10:50:28.395Z,3.00
2018-02-01T10:51:28.371Z,4.00
2018-02-01T10:52:28.382Z,3.50
2018-02-01T10:53:28.342Z,4.40
2018-02-01T10:54:28.327Z,4.10
2018-02-01T10:55:28.316Z,3.80
2018-02-01T10:56:28.297Z,3.20
2018-02-01T10:57:28.312Z,3.30
2018-02-01T10:58:28.269Z,3.70
2018-02-01T10:59:28.285Z,3.60
2018-02-01T11:00:28.266Z,3.90
2018-02-01T11:01:28.253Z,3.60
2018-02-01T11:02:28.239Z,3.60
2018-02-01T11:03:28.194Z,5.00
2018-02-01T11:04:28.188Z,4.60
2018-02-01T11:05:28.176Z,4.10
2018-02-01T11:06:28.169Z,4.80
2018-02-01T11:07:28.135Z,3.70
2018-02-01T11:08:28.117Z,4.30
2018-02-01T11:09:28.102Z,4.40
2018-02-01T11:10:28.087Z,4.00
2018-02-01T11:11:28.076Z,3.70
2018-02-01T11:12:28.080Z,5.70
2018-02-01T11:13:28.038Z,4.10
2018-02-01T11:14:28.579Z,4.90
2018-02-01T11:15:28.039Z,4.40
2018-02-01T11:16:27.995Z,3.80
2018-02-01T11:17:27.986Z,3.70
2018-02-01T11:18:27.984Z,5.20
2018-02-01T11:19:27.968Z,3.70
2018-02-01T11:20:27.939Z,4.10
2018-02-01T11:21:27.919Z,3.50
2018-02-01T11:22:27.892Z,3.90
2018-02-01T11:23:27.906Z,3.90
2018-02-01T11:24:27.896Z,3.50
2018-02-01T11:25:27.856Z,4.20
2018-02-01T11:26:27.837Z,3.10
2018-02-01T11:27:27.854Z,3.70
2018-02-01T11:28:27.843Z,3.00
2018-02-01T11:29:27.805Z,3.80
2018-02-01T11:30:27.787Z,2.30
2018-02-01T11:31:27.810Z,4.50
2018-02-01T11:32:27.793Z,2.90
2018-02-01T11:33:27.758Z,3.00
2018-02-01T11:34:27.739Z,3.20
2018-02-01T11:35:27.732Z,2.30
2018-02-01T11:36:27.715Z,2.80
2018-02-01T11:37:27.719Z,2.20
2018-02-01T11:38:27.704Z,3.40
2018-02-01T11:39:27.678Z,3.10
2018-02-01T11:40:27.691Z,3.20
2018-02-01T11:41:27.649Z,5.00
2018-02-01T11:42:27.673Z,3.20
2018-02-01T11:43:27.654Z,3.30
2018-02-01T11:44:27.619Z,3.70
2018-02-01T11:45:27.618Z,3.70
2018-02-01T11:46:27.592Z,4.30
2018-02-01T11:47:27.581Z,4.10
2018-02-01T11:48:27.565Z,5.70
2018-02-01T11:49:27.552Z,3.80
2018-02-01T11:50:27.538Z,3.90
2018-02-01T11:51:27.527Z,4.00
2018-02-01T11:52:27.539Z,3.70
2018-02-01T11:53:27.496Z,2.40
2018-02-01T11:54:27.489Z,2.50
2018-02-01T11:55:27.470Z,4.10
2018-02-01T11:56:27.459Z,3.10
2018-02-01T11:57:27.456Z,3.10
2018-02-01T11:58:27.442Z,3.10
2018-02-01T11:59:27.439Z,3.60
2018-02-01T12:00:27.411Z,3.40
2018-02-01T12:01:27.391Z,2.50
2018-02-01T12:02:27.376Z,4.00
2018-02-01T12:03:27.390Z,2.50
2018-02-01T12:04:27.370Z,2.30
2018-02-01T12:05:27.364Z,4.20
2018-02-01T12:06:27.343Z,3.70
2018-02-01T12:07:27.338Z,3.10
2018-02-01T12:08:27.298Z,4.80
2018-02-01T12:09:27.303Z,2.90
2018-02-01T12:10:27.261Z,5.30
2018-02-01T12:11:27.265Z,3.20
2018-02-01T12:12:27.265Z,3.40
2018-02-01T12:13:27.222Z,3.10
2018-02-01T12:14:27.219Z,3.60
2018-02-01T12:15:27.203Z,4.30
2018-02-01T12:16:27.204Z,4.90
2018-02-01T12:17:27.212Z,4.80
2018-02-01T12:18:27.166Z,4.60
2018-02-01T12:19:27.156Z,4.20
2018-02-01T12:20:27.169Z,5.70
2018-02-01T12:21:27.198Z,5.10
2018-02-01T12:22:27.124Z,4.80
2018-02-01T12:23:27.106Z,4.30
2018-02-01T12:24:27.103Z,3.90
2018-02-01T12:25:27.657Z,4.30
2018-02-01T12:26:27.105Z,4.30
2018-02-01T12:27:27.092Z,4.10
2018-02-01T12:28:27.083Z,4.80
2018-02-01T12:29:27.048Z,3.50
2018-02-01T12:30:27.061Z,3.70
2018-02-01T12:31:27.036Z,4.70
2018-02-01T12:32:27.015Z,4.90
2018-02-01T12:33:27.030Z,3.40
2018-02-01T12:34:26.994Z,5.50
2018-02-01T12:35:27.012Z,3.30
2018-02-01T12:36:26.975Z,2.50
2018-02-01T12:37:26.982Z,3.00
2018-02-01T12:38:26.981Z,2.80
2018-02-01T12:39:26.974Z,2.80
2018-02-01T12:40:26.949Z,2.90
2018-02-01T12:41:26.943Z,2.50
2018-02-01T12:42:26.947Z,2.60
2018-02-01T12:43:26.910Z,4.60
2018-02-01T12:44:26.926Z,3.00
2018-02-01T12:45:26.917Z,3.30
2018-02-01T12:46:26.908Z,5.20
2018-02-01T12:47:26.871Z,5.00
2018-02-01T12:48:26.893Z,3.90
2018-02-01T12:49:26.852Z,4.70
2018-02-01T12:50:26.871Z,3.60
2018-02-01T12:51:26.857Z,4.00
2018-02-01T12:52:26.828Z,5.00
2018-02-01T12:53:26.888Z,3.40
2018-02-01T12:54:26.807Z,4.50
2018-02-01T12:55:26.818Z,5.60
2018-02-01T12:56:26.797Z,5.60
2018-02-01T12:57:26.770Z,4.60
2018-02-01T12:58:26.767Z,5.20
2018-02-01T12:59:26.767Z,3.50
2018-02-01T13:00:26.739Z,3.50
2018-02-01T13:01:26.723Z,3.80
2018-02-01T13:02:26.741Z,4.80
2018-02-01T13:03:26.701Z,3.10
2018-02-01T13:04:26.694Z,3.40
2018-02-01T13:05:26.692Z,4.20
2018-02-01T13:06:26.697Z,3.00
2018-02-01T13:07:26.693Z,3.70
2018-02-01T13:08:26.680Z,2.70
2018-02-01T13:09:26.662Z,2.60
2018-02-01T13:10:26.626Z,2.70
2018-02-01T13:11:26.615Z,4.80